Time;durP1;ratioP1;P1;durP2;ratioP2;P2;SDS_P1;SDS_P2;PMS_P1;PMS_P2;Temp;Humidity;BMP_temperature;BMP_pressure;BME280_temperature;BME280_humidity;BME280_pressure;Samples;Min_cycle;Max_cycle;Signal;HPM_P1;HPM_P2
2022/02/11 00:04:12;;;;;;;0.85;0.15;;;3.30;99.90;;;;;;6150979;23;20092;-80
2022/02/11 00:09:36;;;;;;;1.92;0.20;;;3.30;99.90;;;;;;6118939;23;20033;-80
2022/02/11 00:12:02;;;;;;;0.43;0.10;;;3.30;99.90;;;;;;6150883;23;20013;-80
2022/02/11 00:14:31;;;;;;;0.32;0.10;;;3.20;99.90;;;;;;6126047;23;20017;-80
2022/02/11 00:16:57;;;;;;;2.15;0.20;;;3.20;99.90;;;;;;6151248;23;20084;-80
2022/02/11 00:19:22;;;;;;;3.25;0.30;;;3.30;99.90;;;;;;6152732;23;20076;-80
2022/02/11 00:21:48;;;;;;;2.22;0.20;;;3.20;99.90;;;;;;6128760;23;20100;-80
2022/02/11 00:24:15;;;;;;;5.68;0.40;;;3.30;99.90;;;;;;6127893;23;20368;-80
2022/02/11 00:26:45;;;;;;;3.33;0.40;;;3.40;99.90;;;;;;6154012;23;20091;-80
2022/02/11 00:34:31;;;;;;;3.83;0.30;;;3.20;99.90;;;;;;6153041;23;20063;-80
2022/02/11 00:37:21;;;;;;;1.08;0.20;;;3.20;99.90;;;;;;6153056;23;20009;-80
2022/02/11 00:43:19;;;;;;;2.28;0.20;;;3.30;99.90;;;;;;6153112;23;20095;-80
2022/02/11 01:02:11;;;;;;;4.03;0.30;;;3.30;99.90;;;;;;6152879;23;20534;-80
2022/02/11 01:04:13;;;;;;;4.05;0.40;;;3.30;99.90;;;;;;6152621;23;20014;-80
2022/02/11 01:06:40;;;;;;;4.43;0.45;;;3.20;99.90;;;;;;6127910;23;20442;-80
2022/02/11 01:09:06;;;;;;;2.90;0.63;;;3.20;99.90;;;;;;6153743;23;20308;-80
2022/02/11 01:11:44;;;;;;;3.33;0.40;;;3.30;99.90;;;;;;6127670;23;20006;-80
2022/02/11 01:14:10;;;;;;;4.15;0.40;;;3.40;99.90;;;;;;6127737;23;20006;-80
2022/02/11 01:16:45;;;;;;;2.65;0.60;;;3.50;99.90;;;;;;6127567;23;20065;-79
2022/02/11 01:22:28;;;;;;;4.20;0.60;;;3.50;99.90;;;;;;6068381;23;20386;-80
2022/02/11 01:25:22;;;;;;;2.45;0.38;;;3.50;99.90;;;;;;6067964;23;20105;-80
2022/02/11 01:47:23;;;;;;;2.50;0.28;;;3.40;99.90;;;;;;6006435;23;20151;-81
2022/02/11 01:49:56;;;;;;;3.58;0.35;;;3.40;99.90;;;;;;6000505;23;20618;-80
2022/02/11 01:57:33;;;;;;;3.58;0.30;;;3.50;99.90;;;;;;6034951;23;20011;-82
2022/02/11 02:00:24;;;;;;;2.83;0.40;;;3.50;99.90;;;;;;6039531;23;20352;-80
2022/02/11 02:03:20;;;;;;;2.70;0.30;;;3.50;99.90;;;;;;6039031;23;20021;-80
2022/02/11 02:06:07;;;;;;;3.47;0.38;;;3.50;99.90;;;;;;6038555;23;20392;-80
2022/02/11 02:09:01;;;;;;;4.70;0.30;;;3.30;99.90;;;;;;6038972;23;20018;-80
2022/02/11 02:32:32;;;;;;;3.25;0.50;;;3.80;99.90;;;;;;6152256;23;20068;-81
2022/02/11 02:37:57;;;;;;;9.20;0.50;;;3.90;99.90;;;;;;6152477;23;20013;-82
2022/02/11 02:43:29;;;;;;;9.30;0.55;;;3.90;99.90;;;;;;6151880;23;20386;-82
2022/02/11 02:57:21;;;;;;;8.43;0.98;;;3.70;99.90;;;;;;6067617;23;20018;-80
2022/02/11 03:34:53;;;;;;;3.50;0.50;;;3.80;99.90;;;;;;6152306;23;20435;-80
2022/02/11 04:23:37;;;;;;;10.80;0.70;;;4.30;99.90;;;;;;6153010;23;20036;-80
2022/02/11 04:56:11;;;;;;;10.65;0.40;;;4.40;99.90;;;;;;6128549;23;20006;-82
2022/02/11 05:01:20;;;;;;;11.23;0.82;;;4.60;99.90;;;;;;6153834;23;20323;-81
2022/02/11 05:03:46;;;;;;;12.00;1.17;;;4.50;99.90;;;;;;6102796;23;20013;-80
2022/02/11 05:06:12;;;;;;;11.25;0.80;;;4.60;99.90;;;;;;6128575;23;20088;-80
2022/02/11 05:08:39;;;;;;;12.55;0.80;;;4.70;99.90;;;;;;6127574;23;20015;-81
2022/02/11 05:11:10;;;;;;;10.65;0.70;;;4.70;99.90;;;;;;6104001;23;20075;-80
2022/02/11 05:13:37;;;;;;;16.42;0.85;;;4.70;99.90;;;;;;6103466;23;20439;-80
2022/02/11 05:16:03;;;;;;;15.23;0.70;;;4.70;99.90;;;;;;6127258;23;20017;-82
2022/02/11 05:18:29;;;;;;;8.23;0.50;;;4.70;99.90;;;;;;6103422;23;20084;-80
2022/02/11 05:20:54;;;;;;;11.00;0.68;;;4.70;99.90;;;;;;6103855;23;20033;-81
2022/02/11 05:23:20;;;;;;;11.25;0.60;;;4.70;99.90;;;;;;6103365;23;20043;-80
2022/02/11 05:25:46;;;;;;;12.25;0.50;;;4.60;99.90;;;;;;6103811;23;20620;-81
2022/02/11 05:28:12;;;;;;;7.57;0.60;;;4.60;99.90;;;;;;6154879;23;20001;-81
2022/02/11 05:30:39;;;;;;;9.35;0.47;;;4.70;99.90;;;;;;6102797;23;20013;-80
2022/02/11 05:33:06;;;;;;;12.75;0.60;;;4.60;99.90;;;;;;6127726;23;20051;-81
2022/02/11 05:35:34;;;;;;;7.88;0.40;;;4.60;99.90;;;;;;6104338;23;20458;-81
2022/02/11 05:38:00;;;;;;;3.92;0.30;;;4.60;99.90;;;;;;6154526;23;20021;-80
2022/02/11 05:40:26;;;;;;;7.47;0.47;;;4.60;99.90;;;;;;6128209;23;20009;-81
2022/02/11 05:42:54;;;;;;;14.48;0.57;;;4.70;99.90;;;;;;6103350;23;20086;-81
2022/02/11 05:45:20;;;;;;;9.80;0.57;;;4.70;99.90;;;;;;6127299;23;20013;-82
2022/02/11 05:47:47;;;;;;;10.43;0.47;;;4.70;99.90;;;;;;6101512;23;20009;-82
2022/02/11 05:50:13;;;;;;;9.55;1.60;;;4.70;99.90;;;;;;6103590;23;20029;-82
2022/02/11 05:52:39;;;;;;;6.38;0.77;;;4.70;99.90;;;;;;6127545;23;20025;-85
2022/02/11 05:55:04;;;;;;;12.02;0.85;;;4.60;99.90;;;;;;6154539;23;19998;-84
2022/02/11 05:57:30;;;;;;;10.27;0.55;;;4.60;99.90;;;;;;6103359;23;20342;-82
2022/02/11 05:59:56;;;;;;;10.95;0.85;;;4.70;99.90;;;;;;6103310;23;20005;-84
2022/02/11 06:02:22;;;;;;;13.95;0.70;;;4.60;99.90;;;;;;6103101;23;20096;-84
2022/02/11 06:04:48;;;;;;;9.18;0.50;;;4.50;99.90;;;;;;6153558;23;20037;-85
2022/02/11 06:07:14;;;;;;;7.45;1.58;;;4.50;99.90;;;;;;6104145;23;20013;-84
2022/02/11 06:09:41;;;;;;;8.38;0.40;;;4.50;99.90;;;;;;6127926;23;20443;-85
2022/02/11 06:12:08;;;;;;;8.48;0.55;;;4.50;99.90;;;;;;6154280;23;20423;-86
2022/02/11 06:14:35;;;;;;;10.68;0.75;;;4.50;99.90;;;;;;6102763;23;20001;-85
2022/02/11 06:17:00;;;;;;;10.27;0.60;;;4.50;99.90;;;;;;6102636;23;20442;-84
2022/02/11 06:19:26;;;;;;;10.25;0.50;;;4.60;99.90;;;;;;6103301;23;20088;-85
2022/02/11 06:21:52;;;;;;;11.50;0.77;;;4.60;99.90;;;;;;6127936;23;20227;-84
2022/02/11 06:24:17;;;;;;;9.00;0.50;;;4.60;99.90;;;;;;6136590;23;20016;-83
2022/02/11 06:26:43;;;;;;;8.05;0.40;;;4.60;99.90;;;;;;6151597;23;20025;-83
2022/02/11 06:29:09;;;;;;;10.93;0.70;;;4.60;99.90;;;;;;6127146;23;20005;-84
2022/02/11 06:31:35;;;;;;;10.18;0.70;;;4.60;99.90;;;;;;6127324;23;20010;-84
2022/02/11 06:34:00;;;;;;;14.40;0.60;;;4.50;99.90;;;;;;6127062;23;20005;-82
2022/02/11 06:36:26;;;;;;;7.43;0.55;;;4.30;99.90;;;;;;6126184;23;20006;-82
2022/02/11 06:38:51;;;;;;;11.70;0.80;;;4.10;99.90;;;;;;6153257;23;20002;-83
2022/02/11 06:41:17;;;;;;;10.82;0.82;;;4.10;99.90;;;;;;6153809;23;20009;-82
2022/02/11 06:43:44;;;;;;;13.07;1.00;;;4.10;99.90;;;;;;6152349;23;20063;-83
2022/02/11 06:46:10;;;;;;;17.35;1.08;;;4.10;99.90;;;;;;6126749;23;20025;-83
2022/02/11 06:48:36;;;;;;;9.55;0.80;;;4.20;99.90;;;;;;6126379;23;20324;-82
2022/02/11 06:51:01;;;;;;;13.18;1.42;;;4.20;99.90;;;;;;6127568;23;20068;-82
2022/02/11 06:53:27;;;;;;;12.15;1.15;;;4.20;99.90;;;;;;6148561;23;20009;-82
2022/02/11 06:55:53;;;;;;;14.55;0.85;;;4.20;99.90;;;;;;6101013;23;20045;-83
2022/02/11 06:58:21;;;;;;;10.10;0.90;;;4.10;99.90;;;;;;6150751;23;20081;-79
2022/02/11 07:00:49;;;;;;;14.35;0.93;;;4.10;99.90;;;;;;6149939;23;20414;-80
2022/02/11 07:03:16;;;;;;;8.75;0.60;;;4.10;99.90;;;;;;6126770;23;20434;-81
2022/02/11 07:05:42;;;;;;;10.52;0.60;;;4.10;99.90;;;;;;6150563;23;20471;-82
2022/02/11 07:08:08;;;;;;;13.25;1.15;;;4.10;99.90;;;;;;6153091;23;20005;-83
2022/02/11 07:10:34;;;;;;;11.73;1.95;;;4.00;99.90;;;;;;6149636;23;20020;-85
2022/02/11 07:13:00;;;;;;;13.02;0.65;;;4.00;99.90;;;;;;6126363;23;20048;-81
2022/02/11 07:15:26;;;;;;;12.18;0.70;;;4.00;99.90;;;;;;6125995;23;20075;-80
2022/02/11 07:17:52;;;;;;;12.05;1.05;;;4.00;99.90;;;;;;6150669;23;20431;-83
2022/02/11 07:20:18;;;;;;;14.68;0.70;;;3.90;99.90;;;;;;6151480;23;20005;-81
2022/02/11 07:22:44;;;;;;;11.55;1.23;;;3.90;99.90;;;;;;6125348;23;20366;-80
2022/02/11 07:25:12;;;;;;;13.35;0.70;;;3.90;99.90;;;;;;6151354;23;20062;-81
2022/02/11 07:27:42;;;;;;;11.23;1.30;;;3.90;99.90;;;;;;6100846;23;20025;-82
2022/02/11 07:30:08;;;;;;;9.27;0.70;;;3.80;99.90;;;;;;6126197;23;20010;-83
2022/02/11 07:32:34;;;;;;;13.00;0.60;;;3.80;99.90;;;;;;6126171;23;20123;-83
2022/02/11 07:35:02;;;;;;;11.43;0.85;;;3.80;99.90;;;;;;6101937;23;20005;-83
2022/02/11 07:37:29;;;;;;;9.57;0.73;;;3.80;99.90;;;;;;6100613;23;20215;-81
2022/02/11 07:39:57;;;;;;;16.42;0.68;;;3.80;99.90;;;;;;6126242;23;20018;-82
2022/02/11 07:42:23;;;;;;;15.63;0.60;;;3.90;99.90;;;;;;6101894;23;20010;-81
2022/02/11 07:44:48;;;;;;;15.05;0.77;;;3.90;99.90;;;;;;6125781;23;20512;-81
2022/02/11 07:47:15;;;;;;;11.98;1.33;;;3.90;99.90;;;;;;6101953;23;20017;-83
2022/02/11 07:49:41;;;;;;;11.43;0.60;;;4.00;99.90;;;;;;6098580;23;20016;-81
2022/02/11 07:52:07;;;;;;;17.70;0.80;;;4.00;99.90;;;;;;6100962;23;20013;-82
2022/02/11 07:54:32;;;;;;;20.08;0.90;;;4.00;99.90;;;;;;6100195;23;20072;-79
2022/02/11 07:56:58;;;;;;;17.67;1.02;;;4.00;99.90;;;;;;6100431;23;20013;-82
2022/02/11 07:59:25;;;;;;;17.52;1.25;;;4.10;99.90;;;;;;6100753;23;20446;-81
2022/02/11 08:01:50;;;;;;;11.45;0.70;;;4.10;99.90;;;;;;6100081;23;20020;-84
2022/02/11 08:04:16;;;;;;;8.32;0.60;;;4.10;99.90;;;;;;6101026;23;19998;-80
2022/02/11 08:06:42;;;;;;;10.02;0.60;;;4.10;99.90;;;;;;6076871;23;20032;-80
2022/02/11 08:09:08;;;;;;;15.60;1.13;;;4.20;99.90;;;;;;6100010;23;20060;-81
2022/02/11 08:11:33;;;;;;;11.00;0.70;;;4.20;99.90;;;;;;6100849;23;20515;-81
2022/02/11 08:14:00;;;;;;;7.88;0.82;;;4.20;99.90;;;;;;6101211;23;20057;-80
2022/02/11 08:16:26;;;;;;;18.60;0.88;;;4.30;99.90;;;;;;6100725;23;20104;-80
2022/02/11 08:18:51;;;;;;;10.32;0.70;;;4.30;99.90;;;;;;6100052;23;20041;-81
2022/02/11 08:21:17;;;;;;;12.93;0.90;;;4.30;99.90;;;;;;6101024;23;20006;-83
2022/02/11 08:23:43;;;;;;;14.35;1.30;;;4.40;99.90;;;;;;6133663;23;20339;-80
2022/02/11 08:26:10;;;;;;;16.80;1.00;;;4.40;99.90;;;;;;6149827;23;20014;-82
2022/02/11 08:28:36;;;;;;;15.20;0.80;;;4.40;99.90;;;;;;6149698;23;20033;-82
2022/02/11 08:31:02;;;;;;;9.70;0.80;;;4.50;99.90;;;;;;6124288;23;20438;-82
2022/02/11 08:33:28;;;;;;;18.52;1.58;;;4.50;99.90;;;;;;6149213;23;20477;-80
2022/02/11 08:35:57;;;;;;;11.52;0.70;;;4.60;99.90;;;;;;6150808;23;20006;-82
2022/02/11 08:38:24;;;;;;;15.50;0.90;;;4.70;99.90;;;;;;6150052;23;20111;-82
2022/02/11 08:40:51;;;;;;;14.38;1.08;;;4.70;99.90;;;;;;6126366;23;20342;-81
2022/02/11 08:43:17;;;;;;;15.77;1.95;;;4.70;99.90;;;;;;6152118;23;20017;-82
2022/02/11 08:45:43;;;;;;;12.65;0.88;;;4.80;99.90;;;;;;6151833;23;20013;-82
2022/02/11 08:48:11;;;;;;;19.45;1.67;;;4.80;99.90;;;;;;6124308;23;20057;-80
2022/02/11 08:50:38;;;;;;;18.85;1.70;;;4.80;99.90;;;;;;6150684;23;20084;-82
2022/02/11 08:53:04;;;;;;;18.95;1.63;;;5.00;99.90;;;;;;6120900;23;20013;-81
2022/02/11 08:55:30;;;;;;;16.17;1.13;;;5.00;99.90;;;;;;6052690;23;20082;-81
2022/02/11 08:57:59;;;;;;;15.25;0.93;;;5.00;99.90;;;;;;6125668;23;20013;-83
2022/02/11 09:00:27;;;;;;;15.00;1.38;;;5.10;99.90;;;;;;6152172;23;20001;-81
2022/02/11 09:02:54;;;;;;;23.65;1.98;;;5.10;99.90;;;;;;6151354;23;20020;-84
2022/02/11 09:05:21;;;;;;;18.17;1.25;;;5.10;99.90;;;;;;6126219;23;20009;-81
2022/02/11 09:07:51;;;;;;;18.25;1.30;;;5.20;99.90;;;;;;6127204;23;20020;-82
2022/02/11 09:10:17;;;;;;;18.10;1.63;;;5.30;99.90;;;;;;6127930;23;20006;-83
2022/02/11 09:12:42;;;;;;;9.75;0.90;;;5.30;99.90;;;;;;6127505;23;20005;-82
2022/02/11 09:15:08;;;;;;;22.15;1.40;;;5.40;99.90;;;;;;6127005;23;20013;-84
2022/02/11 09:17:34;;;;;;;15.15;1.15;;;5.40;99.90;;;;;;6151999;23;20013;-83
2022/02/11 09:19:59;;;;;;;17.02;1.30;;;5.50;99.90;;;;;;6152295;23;20009;-84
2022/02/11 09:22:25;;;;;;;21.48;1.45;;;5.60;99.90;;;;;;6126951;23;20390;-84
2022/02/11 09:24:53;;;;;;;23.88;1.88;;;5.60;99.90;;;;;;6126760;23;20021;-81
2022/02/11 09:27:19;;;;;;;19.63;1.10;;;5.70;99.90;;;;;;6127529;23;20033;-84
2022/02/11 09:29:45;;;;;;;19.15;1.27;;;5.80;99.90;;;;;;6151580;23;20009;-81
2022/02/11 09:32:11;;;;;;;19.13;1.40;;;5.90;99.90;;;;;;6127603;23;20474;-83
2022/02/11 09:34:37;;;;;;;21.17;2.45;;;5.80;99.90;;;;;;6151368;23;20009;-82
2022/02/11 09:37:03;;;;;;;14.75;1.55;;;5.80;99.90;;;;;;6151500;23;20495;-82
2022/02/11 09:39:29;;;;;;;30.17;1.70;;;5.80;99.90;;;;;;6103065;23;20378;-82
2022/02/11 09:41:55;;;;;;;23.17;2.15;;;5.90;99.90;;;;;;6127352;23;20018;-83
2022/02/11 09:44:24;;;;;;;15.60;1.27;;;6.20;99.90;;;;;;6126979;23;20074;-82
2022/02/11 09:46:50;;;;;;;23.73;1.33;;;6.10;99.90;;;;;;6151551;23;20379;-83
2022/02/11 09:49:17;;;;;;;23.40;0.93;;;5.90;99.90;;;;;;6152007;23;20029;-81
2022/02/11 09:51:44;;;;;;;13.20;1.55;;;5.90;99.90;;;;;;6126204;23;20005;-81
2022/02/11 09:54:17;;;;;;;25.33;2.03;;;6.00;99.90;;;;;;6151479;23;20013;-84
2022/02/11 09:56:43;;;;;;;12.75;0.65;;;6.20;99.90;;;;;;6151528;23;20040;-82
2022/02/11 09:59:09;;;;;;;13.05;0.98;;;6.10;99.90;;;;;;6127205;23;20024;-79
2022/02/11 10:01:38;;;;;;;10.90;0.63;;;5.80;99.90;;;;;;6126783;23;20147;-80
2022/02/11 10:04:09;;;;;;;14.40;0.70;;;5.70;99.90;;;;;;6127150;23;20067;-82
2022/02/11 10:06:35;;;;;;;12.93;0.50;;;5.80;99.90;;;;;;6150504;23;20068;-82
2022/02/11 10:09:02;;;;;;;10.93;0.63;;;5.80;99.90;;;;;;6152321;23;20025;-82
2022/02/11 10:11:28;;;;;;;9.82;0.60;;;5.80;99.90;;;;;;6151253;23;20009;-83
2022/02/11 10:13:55;;;;;;;9.80;0.63;;;5.80;99.90;;;;;;6127302;23;20012;-82
2022/02/11 10:16:24;;;;;;;7.65;0.40;;;5.90;99.90;;;;;;6126903;23;20009;-82
2022/02/11 10:18:51;;;;;;;10.20;0.40;;;6.20;99.90;;;;;;6126872;23;20064;-82
2022/02/11 10:21:23;;;;;;;9.52;0.50;;;6.30;99.90;;;;;;6150673;23;20389;-83
2022/02/11 10:23:51;;;;;;;9.23;0.60;;;6.20;99.90;;;;;;6126927;23;20104;-83
2022/02/11 10:26:18;;;;;;;6.63;0.50;;;6.10;99.90;;;;;;6127282;23;20021;-83
2022/02/11 10:29:03;;;;;;;7.53;0.70;;;6.20;99.90;;;;;;6102378;23;20438;-82
2022/02/11 10:31:35;;;;;;;6.60;0.40;;;6.50;99.90;;;;;;6151077;23;20021;-80
2022/02/11 10:34:10;;;;;;;7.88;0.80;;;6.40;99.90;;;;;;6150764;23;20390;-80
2022/02/11 10:36:49;;;;;;;8.85;0.40;;;6.40;99.90;;;;;;6151637;23;20066;-79
2022/02/11 10:39:20;;;;;;;11.02;0.40;;;6.50;99.90;;;;;;6150917;23;20084;-81
2022/02/11 10:41:54;;;;;;;5.88;0.40;;;6.60;99.90;;;;;;6151199;23;20072;-81
2022/02/11 10:44:22;;;;;;;5.63;0.38;;;6.60;99.90;;;;;;6127014;23;20021;-84
2022/02/11 10:46:50;;;;;;;4.43;0.40;;;6.70;99.90;;;;;;6151270;23;20509;-83
2022/02/11 10:49:17;;;;;;;7.80;0.50;;;6.50;99.90;;;;;;6150872;23;20343;-83
2022/02/11 10:51:45;;;;;;;3.50;0.52;;;6.40;99.90;;;;;;6151271;23;20088;-82
2022/02/11 10:54:34;;;;;;;8.73;0.50;;;6.20;99.90;;;;;;6153020;23;20029;-83
2022/02/11 10:57:04;;;;;;;7.97;0.57;;;6.40;99.90;;;;;;6126850;23;20009;-82
2022/02/11 10:59:35;;;;;;;8.35;0.75;;;6.50;99.90;;;;;;6126618;23;20012;-81
2022/02/11 11:02:07;;;;;;;4.10;0.30;;;6.50;99.90;;;;;;6150722;23;20442;-81
2022/02/11 11:04:33;;;;;;;6.70;0.50;;;6.70;99.90;;;;;;6125644;23;20089;-81
2022/02/11 11:06:59;;;;;;;4.57;0.30;;;6.80;99.90;;;;;;6152592;23;20049;-80
2022/02/11 11:09:28;;;;;;;6.30;0.30;;;7.00;99.90;;;;;;6151070;23;20005;-81
2022/02/11 11:11:57;;;;;;;3.58;0.30;;;6.90;99.90;;;;;;6126343;23;20020;-81
2022/02/11 11:14:24;;;;;;;9.43;0.65;;;6.70;99.90;;;;;;6150595;23;20008;-82
2022/02/11 11:16:52;;;;;;;5.82;0.30;;;6.60;99.90;;;;;;6126092;23;20009;-83
2022/02/11 11:19:18;;;;;;;7.22;0.60;;;6.60;99.90;;;;;;6126298;23;20014;-81
2022/02/11 11:22:10;;;;;;;7.30;0.50;;;6.70;99.90;;;;;;6150685;23;20009;-81
2022/02/11 11:24:59;;;;;;;4.50;0.30;;;6.50;99.90;;;;;;6149539;23;20013;-81
2022/02/11 11:27:43;;;;;;;6.05;0.20;;;6.30;99.90;;;;;;6126507;23;20416;-83
2022/02/11 11:30:23;;;;;;;6.88;0.45;;;6.30;99.90;;;;;;6151481;23;20021;-81
2022/02/11 11:33:04;;;;;;;3.55;0.20;;;6.50;99.90;;;;;;6150157;23;20013;-82
2022/02/11 11:35:33;;;;;;;1.55;0.10;;;6.20;99.90;;;;;;6125985;23;20045;-80
2022/02/11 11:38:21;;;;;;;10.02;0.30;;;6.10;99.90;;;;;;6151419;23;20048;-80
2022/02/11 11:41:19;;;;;;;4.65;0.30;;;6.50;99.90;;;;;;6150510;23;20168;-80
2022/02/11 11:43:49;;;;;;;5.70;0.40;;;6.60;99.90;;;;;;6126219;23;20012;-82
2022/02/11 11:46:18;;;;;;;9.63;0.40;;;6.70;99.90;;;;;;6125929;23;20017;-81
2022/02/11 11:49:05;;;;;;;5.88;0.40;;;6.70;99.90;;;;;;6150370;23;20060;-81
2022/02/11 11:51:51;;;;;;;9.80;0.50;;;6.90;99.90;;;;;;6125686;23;20068;-80
2022/02/11 11:54:22;;;;;;;10.10;0.40;;;6.90;99.90;;;;;;6150565;23;20106;-81
2022/02/11 11:56:49;;;;;;;7.72;0.50;;;7.10;99.90;;;;;;6125937;23;20027;-81
2022/02/11 11:59:16;;;;;;;7.57;0.40;;;7.10;99.90;;;;;;6150820;23;20002;-82
2022/02/11 12:01:59;;;;;;;10.60;0.50;;;7.10;99.90;;;;;;6125661;23;20446;-80
2022/02/11 12:04:55;;;;;;;8.32;0.40;;;7.00;99.90;;;;;;6126266;23;20010;-81
2022/02/11 12:07:26;;;;;;;7.47;0.93;;;7.10;99.90;;;;;;6126138;23;20018;-80
2022/02/11 12:09:56;;;;;;;8.30;0.40;;;7.00;99.90;;;;;;6150283;23;20009;-82
2022/02/11 12:12:24;;;;;;;10.05;0.40;;;7.00;99.90;;;;;;6150523;23;20390;-81
2022/02/11 12:14:55;;;;;;;5.93;0.40;;;7.30;99.90;;;;;;6152423;23;20010;-83
2022/02/11 12:17:22;;;;;;;7.07;0.60;;;7.50;99.90;;;;;;6128158;23;20013;-85
2022/02/11 12:19:49;;;;;;;7.95;0.40;;;7.40;99.90;;;;;;6128146;23;20021;-82
2022/02/11 12:22:16;;;;;;;8.02;0.40;;;7.20;99.90;;;;;;6152324;23;20359;-83
2022/02/11 12:27:35;;;;;;;9.65;0.90;;;7.10;99.90;;;;;;6153280;23;20041;-82
2022/02/11 12:30:03;;;;;;;12.07;0.40;;;6.90;99.90;;;;;;6127756;23;20477;-81
2022/02/11 12:32:39;;;;;;;8.52;0.50;;;6.90;99.90;;;;;;6127547;23;20407;-79
2022/02/11 12:35:07;;;;;;;8.90;0.40;;;6.80;99.90;;;;;;6127978;23;20053;-82
2022/02/11 12:37:33;;;;;;;10.35;0.50;;;6.90;99.90;;;;;;6127293;23;20010;-82
2022/02/11 12:40:22;;;;;;;8.52;0.50;;;6.80;99.90;;;;;;6152286;23;20069;-81
2022/02/11 12:42:50;;;;;;;9.52;0.50;;;6.70;99.90;;;;;;6084564;23;20578;-81
2022/02/11 12:45:24;;;;;;;6.63;0.30;;;6.70;99.90;;;;;;6125343;23;20016;-80
2022/02/11 12:47:52;;;;;;;8.70;0.40;;;6.60;99.90;;;;;;6126583;23;20097;-82
2022/02/11 12:50:27;;;;;;;7.63;0.40;;;6.60;99.90;;;;;;6127131;23;20005;-81
2022/02/11 12:52:53;;;;;;;7.25;0.40;;;6.50;99.90;;;;;;6151652;23;20040;-81
2022/02/11 12:55:21;;;;;;;5.90;0.20;;;6.40;99.90;;;;;;6151026;23;20347;-81
2022/02/11 12:57:52;;;;;;;5.25;0.40;;;6.30;99.90;;;;;;6152399;23;20310;-81
2022/02/11 13:00:24;;;;;;;4.68;0.30;;;6.20;99.90;;;;;;6126072;23;20014;-82
2022/02/11 13:02:54;;;;;;;5.93;0.22;;;6.10;99.90;;;;;;6151110;23;20088;-81
2022/02/11 13:05:23;;;;;;;2.90;0.30;;;6.00;99.90;;;;;;6149527;23;20092;-81
2022/02/11 13:07:51;;;;;;;3.33;0.30;;;6.10;99.90;;;;;;6150484;23;20014;-81
2022/02/11 13:10:40;;;;;;;7.38;0.30;;;6.40;99.90;;;;;;6150717;23;20002;-80
2022/02/11 13:13:13;;;;;;;6.35;1.23;;;6.50;99.90;;;;;;6125442;23;20446;-81
2022/02/11 13:15:41;;;;;;;4.03;0.20;;;6.60;99.90;;;;;;6149979;23;20073;-84
2022/02/11 13:18:07;;;;;;;5.35;0.30;;;6.60;99.90;;;;;;6150369;23;20013;-81
2022/02/11 13:20:41;;;;;;;2.97;0.75;;;6.70;99.90;;;;;;6126218;23;20009;-80
2022/02/11 13:23:12;;;;;;;5.82;0.35;;;6.70;99.90;;;;;;6125986;23;20116;-80
2022/02/11 13:25:39;;;;;;;5.60;0.30;;;6.80;99.90;;;;;;6150250;23;20511;-81
2022/02/11 13:28:13;;;;;;;4.50;0.30;;;6.90;99.90;;;;;;6150198;23;20010;-80
2022/02/11 13:30:44;;;;;;;2.40;0.30;;;7.00;99.90;;;;;;6150469;23;20351;-81
2022/02/11 13:33:25;;;;;;;4.68;0.25;;;6.80;99.90;;;;;;6150722;23;20013;-81
2022/02/11 13:35:53;;;;;;;3.03;0.20;;;6.80;99.90;;;;;;6152197;23;20032;-82
2022/02/11 13:38:25;;;;;;;6.03;0.35;;;7.00;99.90;;;;;;6150179;23;20096;-81
2022/02/11 13:41:01;;;;;;;5.07;0.40;;;6.90;99.90;;;;;;6103580;23;20438;-81
2022/02/11 13:43:45;;;;;;;3.70;0.25;;;6.90;99.90;;;;;;6152613;23;20029;-82
2022/02/11 13:46:10;;;;;;;3.42;0.20;;;6.80;99.90;;;;;;6130875;23;20025;-81
2022/02/11 13:48:51;;;;;;;3.75;0.35;;;6.90;99.90;;;;;;6152819;23;20056;-83
2022/02/11 13:51:17;;;;;;;7.40;0.30;;;7.00;99.90;;;;;;6152073;23;20013;-81
2022/02/11 13:53:53;;;;;;;7.93;0.50;;;6.80;99.90;;;;;;6126277;23;20450;-82
2022/02/11 13:56:36;;;;;;;5.47;0.30;;;6.90;99.90;;;;;;6127044;23;20020;-82
2022/02/11 13:59:06;;;;;;;5.18;0.30;;;7.00;99.90;;;;;;6151485;23;20052;-80
2022/02/11 14:01:33;;;;;;;;;;;7.10;99.90;;;;;;6151804;23;20454;-81
2022/02/11 14:04:01;;;;;;;3.92;0.20;;;7.10;99.90;;;;;;6126614;23;19992;-82
2022/02/11 14:06:36;;;;;;;4.82;0.30;;;7.00;99.90;;;;;;6152365;23;20064;-82
2022/02/11 14:09:04;;;;;;;4.95;0.22;;;6.90;99.90;;;;;;6126715;23;20122;-82
2022/02/11 14:11:38;;;;;;;6.20;0.40;;;6.80;99.90;;;;;;6150610;23;20442;-82
2022/02/11 14:14:17;;;;;;;8.75;0.60;;;6.80;99.90;;;;;;6153525;23;20008;-82
2022/02/11 14:16:47;;;;;;;5.22;0.40;;;6.70;99.90;;;;;;6151238;23;20072;-81
2022/02/11 14:19:26;;;;;;;3.33;0.40;;;6.60;99.90;;;;;;6153115;23;20020;-81
2022/02/11 14:21:53;;;;;;;8.10;0.93;;;6.40;99.90;;;;;;6123018;23;20089;-81
2022/02/11 14:24:20;;;;;;;3.63;0.20;;;6.30;99.90;;;;;;6152213;23;20069;-80
2022/02/11 14:26:46;;;;;;;4.20;0.30;;;6.20;99.90;;;;;;6126431;23;20394;-82
2022/02/11 14:29:12;;;;;;;5.57;0.50;;;6.40;99.90;;;;;;6152639;23;20056;-81
2022/02/11 14:31:41;;;;;;;4.78;0.30;;;6.50;99.90;;;;;;6102302;23;20431;-81
2022/02/11 14:34:08;;;;;;;3.03;0.20;;;6.50;99.90;;;;;;6152706;23;20057;-81
2022/02/11 14:36:36;;;;;;;4.55;0.10;;;6.50;99.90;;;;;;6125781;23;20037;-81
2022/02/11 14:39:02;;;;;;;3.58;0.20;;;6.60;99.90;;;;;;6126473;23;20016;-81
2022/02/11 14:41:46;;;;;;;4.68;0.40;;;6.50;99.90;;;;;;6125972;23;20013;-81
2022/02/11 14:44:13;;;;;;;3.65;0.30;;;6.40;99.90;;;;;;6102008;23;20375;-81
2022/02/11 14:46:38;;;;;;;7.47;0.32;;;6.20;99.90;;;;;;6152055;23;20018;-82
2022/02/11 14:49:04;;;;;;;3.22;0.20;;;6.10;99.90;;;;;;6101122;23;20407;-81
2022/02/11 14:51:31;;;;;;;4.95;0.20;;;6.10;99.90;;;;;;6102062;23;20044;-81
2022/02/11 14:53:59;;;;;;;3.28;0.20;;;6.00;99.90;;;;;;6126701;23;20169;-81
2022/02/11 14:56:25;;;;;;;2.88;0.30;;;6.00;99.90;;;;;;6101326;23;20062;-81
2022/02/11 14:58:51;;;;;;;5.88;0.20;;;6.00;99.90;;;;;;6151895;23;20014;-81
2022/02/11 15:01:16;;;;;;;2.97;0.10;;;6.00;99.90;;;;;;6126048;23;20470;-81
2022/02/11 15:03:42;;;;;;;4.25;0.47;;;6.00;99.90;;;;;;6125546;23;20010;-81
2022/02/11 15:06:07;;;;;;;2.40;0.20;;;5.90;99.90;;;;;;6101987;23;20310;-82
2022/02/11 15:08:33;;;;;;;3.28;0.10;;;6.00;99.90;;;;;;6101742;23;20037;-81
2022/02/11 15:11:00;;;;;;;3.85;0.20;;;5.90;99.90;;;;;;6126043;23;20024;-81
2022/02/11 15:13:26;;;;;;;2.67;0.20;;;5.80;99.90;;;;;;6101586;23;20018;-81
2022/02/11 15:15:53;;;;;;;4.85;0.20;;;5.80;99.90;;;;;;6126170;23;20527;-81
2022/02/11 15:18:19;;;;;;;5.78;0.30;;;5.80;99.90;;;;;;6151999;23;20002;-81
2022/02/11 15:20:46;;;;;;;2.22;0.20;;;5.80;99.90;;;;;;6101723;23;20015;-81
2022/02/11 15:23:12;;;;;;;4.65;0.20;;;5.70;99.90;;;;;;6104455;23;20020;-81
2022/02/11 15:25:38;;;;;;;5.22;0.38;;;5.70;99.90;;;;;;6149928;23;20009;-82
2022/02/11 15:28:04;;;;;;;5.03;0.40;;;5.70;99.90;;;;;;6151346;23;20009;-82
2022/02/11 15:30:30;;;;;;;3.65;0.10;;;5.60;99.90;;;;;;6150284;23;20430;-81
2022/02/11 15:32:56;;;;;;;2.25;0.22;;;5.60;99.90;;;;;;6125614;23;20100;-80
2022/02/11 15:35:24;;;;;;;1.38;0.10;;;5.50;99.90;;;;;;6125858;23;20443;-81
2022/02/11 15:37:55;;;;;;;1.60;0.15;;;5.40;99.90;;;;;;6149102;23;20013;-81
2022/02/11 15:40:23;;;;;;;4.90;0.28;;;5.40;99.90;;;;;;6150967;23;20096;-80
2022/02/11 15:42:49;;;;;;;6.57;0.30;;;5.40;99.90;;;;;;6150541;23;20092;-80
2022/02/11 15:45:15;;;;;;;3.47;0.30;;;5.40;99.90;;;;;;6152336;23;20005;-80
2022/02/11 15:47:42;;;;;;;2.67;0.10;;;5.40;99.90;;;;;;6151332;23;20049;-80
2022/02/11 15:50:08;;;;;;;3.47;0.20;;;5.40;99.90;;;;;;6125702;23;20378;-80
2022/02/11 15:52:34;;;;;;;3.33;0.20;;;5.50;99.90;;;;;;6149912;23;20013;-80
2022/02/11 15:55:00;;;;;;;1.45;0.10;;;5.50;99.90;;;;;;6125891;23;20096;-80
2022/02/11 15:57:25;;;;;;;1.50;0.10;;;5.60;99.90;;;;;;6152390;23;20018;-80
2022/02/11 15:59:51;;;;;;;3.15;0.30;;;5.60;99.90;;;;;;6149799;23;20006;-81
2022/02/11 16:02:16;;;;;;;2.80;0.20;;;5.70;99.90;;;;;;6150183;23;20006;-80
2022/02/11 16:04:42;;;;;;;3.55;0.22;;;5.60;99.90;;;;;;6149840;23;20013;-83
2022/02/11 16:07:08;;;;;;;2.35;0.10;;;5.60;99.90;;;;;;6149623;23;20451;-81
2022/02/11 16:09:34;;;;;;;3.22;0.20;;;5.50;99.90;;;;;;6125292;23;20044;-82
2022/02/11 16:12:01;;;;;;;2.17;0.20;;;5.50;99.90;;;;;;6150213;23;20016;-81
2022/02/11 16:14:27;;;;;;;2.42;0.20;;;5.50;99.90;;;;;;6149996;23;20001;-81
2022/02/11 16:16:55;;;;;;;3.08;0.20;;;5.50;99.90;;;;;;6150661;23;20016;-81
2022/02/11 16:19:23;;;;;;;3.53;0.20;;;5.50;99.90;;;;;;6125458;23;20006;-81
2022/02/11 16:21:52;;;;;;;4.03;0.25;;;5.40;99.90;;;;;;6149800;23;20032;-80
2022/02/11 16:24:17;;;;;;;3.00;0.30;;;5.40;99.90;;;;;;6150190;23;20442;-80
2022/02/11 16:26:45;;;;;;;4.43;0.20;;;5.40;99.90;;;;;;6123309;23;20498;-81
2022/02/11 16:29:13;;;;;;;;;;;5.30;99.90;;;;;;6126279;23;20006;-80
2022/02/11 16:31:43;;;;;;;3.33;0.20;;;5.20;99.90;;;;;;6124614;23;19911;-81
2022/02/11 16:34:09;;;;;;;2.13;0.20;;;5.20;99.90;;;;;;6124980;23;20054;-81
2022/02/11 16:36:39;;;;;;;4.38;0.20;;;5.20;99.90;;;;;;6124688;23;20096;-81